Latest Weather Observations for Mount Boyce

IDN60801

Issued at 3:32 pm EDT Monday 18 November 2019 (issued every 10 minutes, with the page automatically refreshed every 10 minutes)

About weather observations | Map of weather stations | Latest weather observations for NSW | Other Formats
Station Details ID: 063292 Name: MOUNT BOYCE AWS Lat: -33.62 Lon: 150.27 Height: 1080.0 m
Data from the previous 72 hours. | See also: Recent months at Mount Boyce
Date/Time
EDT
Temp
°C
App
Temp
°C
Dew
Point
°C
Rel
Hum
%
Delta-T
°C
Wind Press
QNH
hPa
Press
MSL
hPa
Rain since
9am
mm
Dir  Spd
km/h
Gust
km/h
Spd
kts
Gust
kts
18/03:30pm 23.6 17.6 -1.3 19 11.7 W 20 37 11 20 - - 0.0
18/03:00pm 22.4 15.6 -1.6 20 11.1 W 24 37 13 20 - - 0.0
18/02:30pm 22.2 15.8 -1.8 20 11.1 W 22 32 12 17 - - 0.0
18/02:00pm 22.5 17.0 0.9 24 10.5 WSW 19 32 10 17 - - 0.0
18/01:30pm 20.1 14.8 2.9 32 8.5 W 20 35 11 19 - - 0.0
18/01:00pm 19.0 13.4 3.2 35 7.8 W 22 35 12 19 - - 0.0
18/12:30pm 19.0 13.7 2.8 34 8.0 W 20 35 11 19 - - 0.0
18/12:21pm 18.5 11.6 2.4 34 7.8 WSW 28 52 15 28 - - 0.0
18/12:00pm 17.6 11.4 2.4 36 7.3 WSW 24 41 13 22 - - 0.0
18/11:30am 17.4 10.8 1.8 35 7.4 WSW 26 37 14 20 - - 0.0
18/11:06am 16.3 9.3 2.0 38 6.8 WSW 28 52 15 28 - - 0.0
18/11:00am 16.8 10.6 2.0 37 7.0 WSW 24 39 13 21 - - 0.0
18/10:34am 15.5 11.4 6.2 54 4.8 W 17 28 9 15 - - 0.0
18/10:30am 15.4 10.9 5.9 53 4.8 W 19 28 10 15 - - 0.0
18/10:00am 14.4 10.2 5.7 56 4.4 W 17 28 9 15 - - 0.0
18/09:30am 13.6 10.3 6.5 62 3.6 WNW 13 24 7 13 - - 0.0
18/09:00am 12.4 10.1 7.5 72 2.5 WNW 9 20 5 11 - - 0.8
18/08:30am 11.4 9.3 8.1 80 1.7 NNW 9 13 5 7 - - 0.6
18/08:00am 10.2 7.8 8.5 89 0.9 N 11 20 6 11 - - 0.6
18/07:30am 9.2 7.1 8.4 95 0.4 NNE 9 13 5 7 - - 0.6
18/07:26am 9.0 6.9 8.2 95 0.4 NNE 9 17 5 9 - - 0.6
18/07:00am 8.5 5.6 8.1 97 0.2 NNE 13 20 7 11 - - 0.6
18/06:52am 8.4 6.2 8.0 97 0.2 NE 9 15 5 8 - - 0.6
18/06:40am 8.2 5.6 7.8 97 0.2 NE 11 19 6 10 - - 0.6
18/06:30am 8.2 5.6 7.8 97 0.2 NE 11 17 6 9 - - 0.6
18/06:00am 8.2 6.0 7.8 97 0.2 NE 9 15 5 8 - - 0.6
18/05:30am 8.3 6.1 7.9 97 0.2 NE 9 15 5 8 - - 0.6
18/05:00am 8.2 6.4 7.8 97 0.2 NE 7 13 4 7 - - 0.6
18/04:30am 8.6 6.5 8.2 97 0.2 NE 9 17 5 9 - - 0.6
18/04:00am 8.7 6.9 8.1 96 0.3 ENE 7 13 4 7 - - 0.6
18/03:30am 8.9 6.9 8.5 97 0.2 ENE 9 17 5 9 - - 0.6
18/03:00am 8.9 6.4 8.3 96 0.3 ENE 11 17 6 9 - - 0.6
18/02:30am 9.0 6.9 8.4 96 0.3 ENE 9 13 5 7 - - 0.6
18/02:00am 9.2 7.2 8.6 96 0.3 ENE 9 15 5 8 - - 0.6
18/01:30am 9.6 7.7 9.1 97 0.3 ENE 9 15 5 8 - - 0.4
18/01:00am 9.5 7.6 9.0 97 0.3 ENE 9 15 5 8 - - 0.4
18/12:30am 9.4 7.4 8.8 96 0.3 ENE 9 17 5 9 - - 0.4
18/12:00am 9.6 8.1 9.0 96 0.3 ENE 7 13 4 7 - - 0.4
 
Date/Time
EDT
Temp
°C
App
Temp
°C
Dew
Point
°C
Rel
Hum
%
Delta-T
°C
Wind Press
QNH
hPa
Press
MSL
hPa
Rain since
9am
mm
Dir  Spd
km/h
Gust
km/h
Spd
kts
Gust
kts
17/11:30pm 9.5 7.6 8.9 96 0.3 ENE 9 15 5 8 - - 0.4
17/11:00pm 9.7 7.8 9.2 97 0.3 ENE 9 20 5 11 - - 0.4
17/10:30pm 9.8 7.6 9.2 96 0.3 ENE 11 19 6 10 - - 0.4
17/10:00pm 10.0 7.8 9.4 96 0.3 ENE 11 20 6 11 - - 0.2
17/09:30pm 9.9 7.6 9.0 94 0.5 ENE 11 17 6 9 - - 0.0
17/09:00pm 10.2 8.3 9.1 93 0.6 ENE 9 17 5 9 - - 0.0
17/08:30pm 10.6 8.7 9.2 91 0.7 ENE 9 17 5 9 - - 0.0
17/08:00pm 10.8 8.5 9.1 89 0.9 ENE 11 19 6 10 - - 0.0
17/07:30pm 11.3 9.1 9.2 87 1.1 ENE 11 17 6 9 - - 0.0
17/07:01pm 11.4 8.6 8.6 83 1.5 E 13 24 7 13 - - 0.0
17/07:00pm 11.5 8.7 8.7 83 1.5 E 13 24 7 13 - - 0.0
17/06:30pm 13.1 10.2 8.2 72 2.6 ENE 13 22 7 12 - - 0.0
17/06:00pm 15.3 12.9 8.8 65 3.5 ENE 11 24 6 13 - - 0.0
17/05:30pm 17.4 15.1 9.1 58 4.6 ENE 11 20 6 11 - - 0.0
17/05:23pm 17.3 14.6 9.0 58 4.5 E 13 28 7 15 - - 0.0
17/05:00pm 16.7 13.4 8.1 57 4.6 E 15 30 8 16 - - 0.0
17/04:30pm 18.1 15.0 8.7 54 5.1 E 15 30 8 16 - - 0.0
17/04:00pm 18.9 16.1 8.6 51 5.6 ENE 13 28 7 15 - - 0.0
17/03:30pm 20.1 17.1 9.1 49 6.1 E 15 28 8 15 - - 0.0
17/03:00pm 18.9 16.1 8.6 51 5.6 E 13 30 7 16 - - 0.0
17/02:30pm 19.9 16.0 7.3 44 6.8 E 17 35 9 19 - - 0.0
17/02:00pm 21.8 19.5 9.0 44 7.2 ENE 11 26 6 14 - - 0.0
17/01:30pm 20.7 17.3 5.9 38 7.8 SSW 13 24 7 13 - - 0.0
17/01:00pm 20.4 15.6 -6.2 16 11.1 SW 11 19 6 10 - - 0.0
17/12:30pm 20.0 15.3 -5.0 18 10.6 SE 11 19 6 10 - - 0.0
17/12:00pm 19.1 15.4 -0.3 27 9.0 NW 9 19 5 10 - - 0.0
17/11:30am 17.3 11.8 -2.4 26 8.6 W 17 24 9 13 - - 0.0
17/11:00am 16.4 12.5 -1.7 29 8.0 W 9 19 5 10 - - 0.0
17/10:30am 16.0 11.1 -0.2 33 7.3 WSW 15 22 8 12 - - 0.0
17/10:00am 14.4 10.5 3.5 48 5.3 WSW 13 19 7 10 - - 0.0
17/09:30am 13.5 11.1 6.8 64 3.4 W 9 13 5 7 - - 0.0
17/09:23am 13.6 11.6 6.9 64 3.4 WSW 7 13 4 7 - - 0.0
17/09:00am 12.1 10.0 8.4 78 1.9 WSW 9 13 5 7 - - 0.0
17/08:30am 11.7 9.9 9.3 85 1.3 WSW 9 13 5 7 - - 0.0
17/08:00am 10.9 9.7 9.5 91 0.7 W 6 9 3 5 - - 0.0
17/07:30am 10.3 9.8 9.2 93 0.6 W 2 7 1 4 - - 0.0
17/07:00am 9.8 9.2 8.9 94 0.5 WSW 2 6 1 3 - - 0.0
17/06:30am 9.3 8.1 8.2 93 0.6 SW 4 7 2 4 - - 0.0
17/06:00am 9.2 7.5 7.5 89 0.9 SSE 6 7 3 4 - - 0.0
17/05:30am 9.3 9.0 8.5 95 0.4 CALM 0 6 0 3 - - 0.0
17/05:00am 8.9 7.2 7.5 91 0.7 ENE 6 7 3 4 - - 0.0
17/04:48am 9.0 7.2 7.3 89 0.9 ENE 6 7 3 4 - - 0.0
17/04:30am 9.7 8.0 8.5 92 0.6 NE 7 9 4 5 - - 0.0
17/04:00am 10.0 8.5 9.2 95 0.4 ENE 7 9 4 5 - - 0.0
17/03:30am 9.5 7.9 8.6 94 0.5 ENE 7 9 4 5 - - 0.0
17/03:00am 9.6 8.0 8.2 91 0.7 ENE 6 9 3 5 - - 0.0
17/02:30am 9.9 8.4 8.5 91 0.7 ENE 6 9 3 5 - - 0.0
17/02:20am 9.9 8.4 8.3 90 0.8 ENE 6 7 3 4 - - 0.0
17/02:00am 10.3 8.8 8.6 89 0.9 ENE 6 9 3 5 - - 0.0
17/01:53am 10.4 8.8 8.7 89 0.9 ENE 7 9 4 5 - - 0.0
17/01:30am 10.7 9.4 9.1 90 0.8 ENE 6 7 3 4 - - 0.0
17/01:00am 11.4 10.0 9.5 88 1.0 ENE 7 13 4 7 - - 0.0
17/12:30am 11.6 10.3 10.0 90 0.9 ENE 7 13 4 7 - - 0.0
17/12:00am 11.6 10.3 10.0 90 0.9 ENE 7 13 4 7 - - 0.0
 
Date/Time
EDT
Temp
°C
App
Temp
°C
Dew
Point
°C
Rel
Hum
%
Delta-T
°C
Wind Press
QNH
hPa
Press
MSL
hPa
Rain since
9am
mm
Dir  Spd
km/h
Gust
km/h
Spd
kts
Gust
kts
16/11:35pm 11.6 10.3 9.9 89 0.9 ENE 7 11 4 6 - - 0.0
16/11:30pm 11.6 10.3 9.9 89 0.9 ENE 7 11 4 6 - - 0.0
16/11:00pm 11.2 9.8 9.5 89 0.9 ENE 7 9 4 5 - - 0.0
16/10:30pm 11.2 9.3 9.1 87 1.1 ENE 9 11 5 6 - - 0.0
16/10:00pm 11.9 10.1 9.6 86 1.2 ENE 9 13 5 7 - - 0.0
16/09:30pm 12.2 10.2 10.3 88 1.0 ENE 11 17 6 9 - - 0.0
16/09:05pm 12.1 9.7 10.2 88 1.0 ENE 13 17 7 9 - - 0.0
16/09:00pm 12.0 9.6 9.9 87 1.1 ENE 13 17 7 9 - - 0.0
16/08:30pm 12.5 10.4 9.9 84 1.4 ENE 11 17 6 9 - - 0.0
16/08:00pm 13.1 11.3 9.5 79 1.9 ENE 9 13 5 7 - - 0.0
16/07:30pm 13.9 12.1 9.3 74 2.5 ENE 9 17 5 9 - - 0.0
16/07:00pm 15.0 12.4 9.4 69 3.1 ENE 13 24 7 13 - - 0.0
16/06:30pm 15.9 13.6 9.1 64 3.7 ENE 11 17 6 9 - - 0.0
16/06:00pm 17.2 14.7 8.4 56 4.8 ENE 11 20 6 11 - - 0.0
16/05:30pm 17.5 14.5 7.8 53 5.2 E 13 24 7 13 - - 0.0
16/05:00pm 19.6 17.6 7.0 44 6.7 NE 7 15 4 8 - - 0.0
16/04:30pm 22.7 18.0 -5.2 15 12.1 W 11 20 6 11 - - 0.0
16/04:00pm 22.3 15.7 -7.4 13 12.3 W 20 33 11 18 - - 0.0
16/03:30pm 22.2 15.5 -7.5 13 12.3 W 20 35 11 19 - - 0.0
16/03:00pm 22.3 15.7 -6.5 14 12.1 WSW 20 30 11 16 - - 0.0
16/02:30pm 21.6 16.5 -5.3 16 11.5 WNW 13 26 7 14 - - 0.0
16/02:00pm 20.4 14.8 -6.2 16 11.1 WSW 15 24 8 13 - - 0.0
16/01:30pm 19.6 15.0 -3.9 20 10.2 NW 11 22 6 12 - - 0.0
16/01:00pm 19.4 14.7 -4.8 19 10.3 SW 11 24 6 13 - - 0.0
16/12:30pm 19.4 15.6 -0.6 26 9.2 W 9 20 5 11 - - 0.0
16/12:00pm 17.7 13.6 -0.5 29 8.3 WSW 11 17 6 9 - - 0.0
16/11:30am 17.0 13.3 0.2 32 7.7 SW 9 15 5 8 - - 0.0
16/11:00am 16.5 12.7 -0.7 31 7.7 WNW 9 15 5 8 - - 0.0
16/10:30am 15.3 11.6 -0.1 35 6.9 W 9 15 5 8 - - 0.0
16/10:00am 14.9 10.9 0.4 37 6.6 WSW 11 17 6 9 - - 0.0
16/09:30am 14.8 10.5 1.0 39 6.3 WSW 13 20 7 11 - - 0.0
16/09:00am 13.4 10.1 2.3 47 5.2 SW 9 15 5 8 - - 0.0
16/08:30am 12.3 8.7 2.7 52 4.5 W 11 17 6 9 - - 0.0
16/08:00am 11.5 7.8 2.5 54 4.1 W 11 13 6 7 - - 0.0
16/07:30am 10.6 7.6 1.9 55 3.9 W 7 9 4 5 - - 0.0
16/07:00am 9.7 6.3 1.6 57 3.6 WSW 9 13 5 7 - - 0.0
16/06:30am 9.1 5.2 1.3 58 3.4 WSW 11 13 6 7 - - 0.0
16/06:00am 8.9 5.4 1.1 58 3.4 WSW 9 13 5 7 - - 0.0
16/05:30am 9.2 4.9 0.9 56 3.6 WSW 13 15 7 8 - - 0.0
16/05:00am 9.4 5.1 0.8 55 3.7 WSW 13 17 7 9 - - 0.0
16/04:30am 9.7 5.0 0.6 53 4.0 WSW 15 17 8 9 - - 0.0
16/04:00am 10.0 5.2 0.1 50 4.3 WSW 15 19 8 10 - - 0.0
16/03:30am 10.6 5.0 0.1 48 4.6 WSW 19 24 10 13 - - 0.0
16/03:00am 11.0 5.7 -0.5 45 4.9 WSW 17 20 9 11 - - 0.0
16/02:30am 11.5 5.6 -0.6 43 5.2 WSW 20 28 11 15 - - 0.0
16/02:00am 12.2 6.0 -0.6 41 5.5 WSW 22 37 12 20 - - 0.0
16/01:30am 12.6 6.6 -1.3 38 6.0 WSW 20 32 11 17 - - 0.0
16/01:00am 13.0 7.0 -1.7 36 6.3 WSW 20 30 11 16 - - 0.0
16/12:30am 13.8 7.0 -2.2 33 6.8 WSW 24 37 13 20 - - 0.0
16/12:00am 14.1 7.5 -3.2 30 7.2 WSW 22 33 12 18 - - 0.0
 
Date/Time
EDT
Temp
°C
App
Temp
°C
Dew
Point
°C
Rel
Hum
%
Delta-T
°C
Wind Press
QNH
hPa
Press
MSL
hPa
Rain since
9am
mm
Dir  Spd
km/h
Gust
km/h
Spd
kts
Gust
kts
15/11:30pm 15.3 7.1 -3.6 27 7.9 WSW 30 43 16 23 - - 0.0
15/11:00pm 15.5 8.8 -3.9 26 8.1 WSW 22 33 12 18 - - 0.0
15/10:30pm 16.1 9.1 -3.4 26 8.2 WSW 24 41 13 22 - - 0.0
15/10:00pm 16.5 8.9 -2.5 27 8.2 WSW 28 37 15 20 - - 0.0
15/09:30pm 16.9 9.7 -1.7 28 8.2 WSW 26 35 14 19 - - 0.0
15/09:00pm 17.1 10.3 -1.5 28 8.3 WSW 24 35 13 19 - - 0.0
15/08:30pm 17.6 11.1 -2.1 26 8.7 WSW 22 39 12 21 - - 0.0
15/08:04pm 18.4 10.8 -2.5 24 9.2 WSW 28 50 15 27 - - 0.0
15/08:00pm 18.3 10.6 -3.2 23 9.3 WSW 28 41 15 22 - - 0.0
15/07:45pm 18.8 11.1 -3.3 22 9.6 WSW 28 50 15 27 - - 0.0
15/07:30pm 19.0 12.0 -3.2 22 9.7 WSW 24 37 13 20 - - 0.0
15/07:00pm 20.1 10.9 -4.2 19 10.5 WSW 35 57 19 31 - - 0.0
15/06:43pm 20.8 10.7 -5.9 16 11.2 WSW 39 69 21 37 - - 0.0
15/06:34pm 21.5 12.8 -5.3 16 11.5 WSW 32 50 17 27 - - 0.0
15/06:30pm 21.6 12.7 -5.3 16 11.5 WSW 33 48 18 26 - - 0.0
15/06:00pm 21.9 12.5 -5.9 15 11.8 W 35 57 19 31 - - 0.0
15/05:30pm 21.5 10.5 -5.3 16 11.5 W 44 65 24 35 - - 0.0
15/05:00pm 22.5 13.0 -3.7 17 11.7 W 37 74 20 40 - - 0.0
15/04:30pm 22.5 12.8 -5.4 15 12.0 W 37 61 20 33 - - 0.0
15/04:00pm 22.3 11.5 -5.6 15 12.0 W 43 63 23 34 - - 0.0

Other formats

Comma delimited format used in spreadsheet applications
http://www.bom.gov.au/fwo/IDN60801/IDN60801.94743.axf

JavaScript Object Notation format (JSON) in row-major order
http://www.bom.gov.au/fwo/IDN60801/IDN60801.94743.json

Data quality

Most of these data are generated automatically and are frequently updated. Quality checks on data are not normally performed. It is possible for incorrect values to appear. Refer to information at About Latest Weather Observations and please check the disclaimer before using these data.